Terminal Aerodrome Forecast
Issued by NWS Binghamton, NY

Home | Current Version | Previous Version | Text Only | Print | Product List | Glossary On
Versions: 1 2 3 4 5 6 7 8 9 10 11 12 13 14 15 16 17 18
000
FTUS41 KBGM 182300
TAFBGM
TAF
KBGM 182333Z 1900/1924 20008KT P6SM SCT120
     FM190200 28007KT P6SM SCT025 BKN035
     FM190900 30007KT P6SM BKN060
     FM191300 34012KT P6SM SCT030=

USA.gov is the U.S. government's official web portal to all federal, state and local government web resources and services.